Time;durP1;ratioP1;P1;durP2;ratioP2;P2;SDS_P1;SDS_P2;PMS_P1;PMS_P2;Temp;Humidity;BMP_temperature;BMP_pressure;BME280_temperature;BME280_humidity;BME280_pressure;Samples;Min_cycle;Max_cycle;Signal;HPM_P1;HPM_P2
2023/01/06 00:00:45;;;;;;;;;2.00;1.00;;;;;20.57;61.99;101186.27;105448;1282;21750;-66
2023/01/06 00:03:18;;;;;;;;;1.00;1.00;;;;;20.57;61.83;101189.55;105427;1282;19312;-64
2023/01/06 00:05:46;;;;;;;;;1.00;1.00;;;;;20.58;61.80;101196.40;105398;1284;20836;-65
2023/01/06 00:08:13;;;;;;;;;;;;;;;20.58;61.88;101200.07;105488;1290;22158;-65
2023/01/06 00:10:40;;;;;;;;;1.00;1.00;;;;;20.57;61.98;101203.59;105429;1291;19192;-64
2023/01/06 00:13:08;;;;;;;;;1.50;1.00;;;;;20.57;61.77;101209.20;105455;1276;19591;-64
2023/01/06 00:15:35;;;;;;;;;1.00;1.00;;;;;20.56;61.72;101216.84;105479;1289;22535;-64
2023/01/06 00:18:03;;;;;;;;;1.00;1.00;;;;;20.56;61.81;101215.27;105430;1282;19159;-65
2023/01/06 00:20:30;;;;;;;;;1.00;1.00;;;;;20.57;61.69;101221.20;105498;1297;19540;-64
2023/01/06 00:22:57;;;;;;;;;1.00;1.00;;;;;20.57;61.88;101220.70;105565;1289;20139;-64
2023/01/06 00:25:25;;;;;;;;;1.00;1.00;;;;;20.55;61.78;101226.23;105409;1297;19653;-64
2023/01/06 00:27:52;;;;;;;;;1.00;1.00;;;;;20.54;61.66;101228.85;105386;1306;19252;-64
2023/01/06 00:30:19;;;;;;;;;1.00;1.00;;;;;20.54;61.83;101231.95;105413;1291;20164;-64
2023/01/06 00:32:47;;;;;;;;;1.00;1.00;;;;;20.55;61.72;101231.51;105444;1282;19921;-64
2023/01/06 00:35:14;;;;;;;;;1.00;1.00;;;;;20.55;61.80;101235.35;105461;1283;21806;-65
2023/01/06 00:37:41;;;;;;;;;1.00;1.00;;;;;20.54;61.79;101240.70;105459;1289;20185;-65
2023/01/06 00:40:09;;;;;;;;;1.00;1.00;;;;;20.53;61.69;101251.63;105419;1282;19158;-65
2023/01/06 00:42:36;;;;;;;;;1.00;1.00;;;;;20.53;61.82;101254.45;105466;1297;27392;-65
2023/01/06 00:45:03;;;;;;;;;1.00;1.00;;;;;20.53;61.66;101255.69;105356;1282;24275;-65
2023/01/06 00:47:31;;;;;;;;;1.00;1.00;;;;;20.54;61.92;101263.61;105381;1298;19087;-65
2023/01/06 00:49:58;;;;;;;;;1.00;1.00;;;;;20.53;61.62;101268.38;105579;1297;19444;-65
2023/01/06 00:52:25;;;;;;;;;;;;;;;20.54;61.62;101270.28;105455;1291;22683;-65
2023/01/06 00:54:53;;;;;;;;;1.00;1.00;;;;;20.53;61.70;101275.33;105530;1282;19605;-65
2023/01/06 00:57:20;;;;;;;;;1.00;1.00;;;;;20.53;61.61;101281.51;105444;1279;20635;-65
2023/01/06 00:59:47;;;;;;;;;1.00;1.00;;;;;20.54;61.69;101287.04;105555;1282;20336;-65
2023/01/06 01:02:15;;;;;;;;;1.00;1.00;;;;;20.54;61.56;101294.11;105598;1297;23800;-65
2023/01/06 01:04:42;;;;;;;;;1.00;1.00;;;;;20.53;61.50;101303.61;105452;1282;23570;-65
2023/01/06 01:07:10;;;;;;;;;1.00;1.00;;;;;20.52;61.70;101308.79;105452;1298;20076;-66
2023/01/06 01:09:37;;;;;;;;;1.00;1.00;;;;;20.53;61.55;101315.25;105566;1285;22616;-66
2023/01/06 01:12:11;;;;;;;;;1.00;1.00;;;;;20.53;61.62;101318.69;105529;1291;20799;-66
2023/01/06 01:14:39;;;;;;;;;1.00;1.00;;;;;20.52;61.60;101323.04;105418;1282;23654;-64
2023/01/06 01:17:06;;;;;;;;;1.00;1.00;;;;;20.52;61.71;101333.99;105493;1297;19220;-64
2023/01/06 01:19:33;;;;;;;;;1.00;1.00;;;;;20.51;61.44;101333.92;105522;1282;23002;-64
2023/01/06 01:22:01;;;;;;;;;1.00;1.00;;;;;20.53;61.69;101342.52;105493;1297;21557;-64
2023/01/06 01:24:28;;;;;;;;;1.00;1.00;;;;;20.51;61.46;101345.21;105434;1281;23522;-64
2023/01/06 01:26:55;;;;;;;;;1.00;1.00;;;;;20.51;61.42;101345.04;105513;1282;20979;-64
2023/01/06 01:29:23;;;;;;;;;1.00;1.00;;;;;20.51;61.56;101350.66;105488;1294;21500;-64
2023/01/06 01:31:50;;;;;;;;;1.00;1.00;;;;;20.50;61.43;101358.72;105412;1274;19172;-64
2023/01/06 01:34:18;;;;;;;;;1.00;1.00;;;;;20.52;61.59;101359.69;105438;1282;21928;-64
2023/01/06 01:36:45;;;;;;;;;1.00;1.00;;;;;20.51;61.37;101362.14;105469;1282;21512;-64
2023/01/06 01:39:12;;;;;;;;;1.00;1.00;;;;;20.50;61.37;101363.25;105438;1274;19629;-64
2023/01/06 01:41:39;;;;;;;;;1.00;1.00;;;;;20.51;61.29;101363.27;105491;1282;19541;-64
2023/01/06 01:44:07;;;;;;;;;1.00;1.00;;;;;20.49;61.57;101363.59;105484;1275;22376;-65
2023/01/06 01:46:35;;;;;;;;;1.00;1.00;;;;;20.48;61.26;101363.86;105451;1289;22844;-64
2023/01/06 01:49:02;;;;;;;;;1.00;1.00;;;;;20.48;61.58;101364.81;105429;1282;20671;-65
2023/01/06 01:51:30;;;;;;;;;1.00;1.00;;;;;20.47;61.44;101363.80;105451;1282;20232;-64
2023/01/06 01:53:57;;;;;;;;;2.00;1.00;;;;;20.46;61.46;101364.05;105541;1282;22478;-64
2023/01/06 01:56:24;;;;;;;;;1.00;1.00;;;;;20.48;61.43;101361.72;105405;1298;21413;-64
2023/01/06 01:58:52;;;;;;;;;1.00;1.00;;;;;20.48;61.30;101361.20;105508;1282;20148;-65
2023/01/06 02:01:19;;;;;;;;;1.00;1.00;;;;;20.48;61.50;101363.05;105525;1282;19564;-65
2023/01/06 02:03:46;;;;;;;;;1.00;1.00;;;;;20.47;61.37;101365.42;105526;1297;21517;-64
2023/01/06 02:06:14;;;;;;;;;1.00;1.00;;;;;20.47;61.39;101367.81;105402;1297;20091;-65
2023/01/06 02:08:41;;;;;;;;;1.00;1.00;;;;;20.47;61.42;101369.13;105445;1282;19079;-64
2023/01/06 02:11:08;;;;;;;;;1.00;1.00;;;;;20.47;61.39;101367.84;105429;1297;19095;-64
2023/01/06 02:13:36;;;;;;;;;1.00;1.00;;;;;20.46;61.32;101373.89;105489;1282;21573;-64
2023/01/06 02:16:03;;;;;;;;;1.00;1.00;;;;;20.46;61.30;101370.07;105491;1297;23523;-64
2023/01/06 02:18:30;;;;;;;;;2.00;2.00;;;;;20.47;61.36;101370.49;105457;1282;19384;-64
2023/01/06 02:20:58;;;;;;;;;1.00;1.00;;;;;20.47;61.16;101378.20;105448;1290;22949;-64
2023/01/06 02:23:25;;;;;;;;;1.00;1.00;;;;;20.47;61.05;101376.77;105378;1275;19133;-64
2023/01/06 02:25:52;;;;;;;;;1.00;1.00;;;;;20.45;61.24;101374.35;105497;1289;19261;-64
2023/01/06 02:28:19;;;;;;;;;1.00;1.00;;;;;20.45;61.17;101369.78;105476;1275;21610;-64
2023/01/06 02:30:47;;;;;;;;;1.00;1.00;;;;;20.46;61.20;101369.73;105443;1297;23088;-64
2023/01/06 02:33:14;;;;;;;;;1.00;1.00;;;;;20.45;61.30;101367.49;105450;1282;19325;-65
2023/01/06 02:35:41;;;;;;;;;1.00;1.00;;;;;20.45;61.20;101368.70;105576;1297;20055;-65
2023/01/06 02:38:09;;;;;;;;;1.00;1.00;;;;;20.45;61.09;101367.99;105502;1297;19217;-64
2023/01/06 02:40:36;;;;;;;;;1.00;1.00;;;;;20.45;61.20;101367.45;105452;1290;19262;-64
2023/01/06 02:43:04;;;;;;;;;1.00;1.00;;;;;20.45;61.26;101370.03;105501;1282;20065;-64
2023/01/06 02:45:31;;;;;;;;;1.00;1.00;;;;;20.45;61.16;101381.65;105417;1290;19583;-65
2023/01/06 02:47:58;;;;;;;;;1.00;1.00;;;;;20.44;61.14;101376.25;105529;1274;21557;-65
2023/01/06 02:50:26;;;;;;;;;1.00;1.00;;;;;20.44;61.09;101377.48;105534;1282;20059;-65
2023/01/06 02:52:53;;;;;;;;;1.00;1.00;;;;;20.43;61.22;101379.75;105428;1297;19066;-65
2023/01/06 02:55:20;;;;;;;;;1.00;1.00;;;;;20.44;61.02;101382.23;105511;1297;20588;-65
2023/01/06 02:57:47;;;;;;;;;2.00;2.00;;;;;20.44;61.12;101384.62;105521;1279;21430;-65
2023/01/06 03:00:15;;;;;;;;;1.00;1.00;;;;;20.44;61.09;101386.46;105555;1279;19161;-64
2023/01/06 03:02:42;;;;;;;;;1.00;1.00;;;;;20.43;61.16;101389.23;105511;1301;19215;-65
2023/01/06 03:05:10;;;;;;;;;1.00;1.00;;;;;20.43;61.13;101390.71;105419;1300;23489;-64
2023/01/06 03:07:37;;;;;;;;;1.00;1.00;;;;;20.42;60.95;101389.73;105449;1280;19581;-65
2023/01/06 03:10:04;;;;;;;;;1.00;1.00;;;;;20.42;61.10;101384.11;105429;1275;21722;-65
2023/01/06 03:12:31;;;;;;;;;1.00;1.00;;;;;20.42;61.07;101389.48;105451;1281;20381;-64
2023/01/06 03:14:59;;;;;;;;;1.00;1.00;;;;;20.42;61.13;101390.95;105441;1282;21744;-64
2023/01/06 03:17:26;;;;;;;;;;;;;;;20.41;60.98;101393.42;105551;1297;20724;-63
2023/01/06 03:19:53;;;;;;;;;1.00;1.00;;;;;20.42;61.01;101397.58;105454;1275;22265;-64
2023/01/06 03:22:21;;;;;;;;;1.00;1.00;;;;;20.42;61.15;101398.47;105428;1282;19417;-64
2023/01/06 03:24:48;;;;;;;;;1.00;1.00;;;;;20.42;61.04;101401.20;105448;1298;20626;-64
2023/01/06 03:27:16;;;;;;;;;1.00;1.00;;;;;20.42;60.97;101405.92;105538;1282;19988;-65
2023/01/06 03:29:43;;;;;;;;;1.00;1.00;;;;;20.42;60.98;101414.06;105462;1300;24230;-65
2023/01/06 03:32:10;;;;;;;;;1.00;1.00;;;;;20.42;61.15;101416.27;105458;1289;23403;-65
2023/01/06 03:34:38;;;;;;;;;1.00;1.00;;;;;20.41;61.10;101417.59;105389;1275;21511;-64
2023/01/06 03:37:05;;;;;;;;;1.00;1.00;;;;;20.41;60.94;101416.89;105492;1289;19501;-64
2023/01/06 03:39:32;;;;;;;;;1.00;1.00;;;;;20.41;61.07;101419.04;105560;1297;19351;-64
2023/01/06 03:44:45;;;;;;;;;1.00;1.00;;;;;20.41;61.03;101415.93;105563;1291;19171;-64
2023/01/06 03:47:12;;;;;;;;;1.00;1.00;;;;;20.40;60.98;101419.53;105573;1291;22881;-64
2023/01/06 03:49:39;;;;;;;;;1.00;1.00;;;;;20.40;60.95;101428.93;105556;1290;21581;-64
2023/01/06 03:52:07;;;;;;;;;1.00;1.00;;;;;20.40;61.05;101433.65;105568;1297;24822;-65
2023/01/06 03:54:35;;;;;;;;;1.00;1.00;;;;;20.41;60.90;101431.58;105520;1297;22802;-64
2023/01/06 03:57:02;;;;;;;;;1.00;1.00;;;;;20.39;60.84;101433.74;105415;1290;21510;-64
2023/01/06 03:59:30;;;;;;;;;1.00;1.00;;;;;20.40;60.86;101430.44;105571;1290;19679;-65
2023/01/06 04:01:57;;;;;;;;;1.00;1.00;;;;;20.39;60.97;101429.77;105499;1294;20531;-65
2023/01/06 04:04:24;;;;;;;;;1.00;1.00;;;;;20.40;60.87;101434.59;105488;1298;23579;-66
2023/01/06 04:06:53;;;;;;;;;1.00;1.00;;;;;20.40;60.84;101429.50;105469;1275;19633;-64
2023/01/06 04:09:20;;;;;;;;;1.00;1.00;;;;;20.40;60.91;101425.86;105460;1282;23236;-66
2023/01/06 04:14:29;;;;;;;;;1.00;1.00;;;;;20.39;60.72;101444.84;105224;1287;19697;-66
2023/01/06 04:16:56;;;;;;;;;1.00;1.00;;;;;20.38;60.84;101444.54;105172;1281;19584;-65
2023/01/06 04:19:23;;;;;;;;;1.00;1.00;;;;;20.38;60.90;101440.63;105129;1302;21762;-65
2023/01/06 04:21:51;;;;;;;;;1.00;1.00;;;;;20.39;60.82;101439.22;105124;1281;19705;-65
2023/01/06 04:24:18;;;;;;;;;;;;;;;20.38;60.86;101438.05;105178;1289;19442;-66
2023/01/06 04:26:45;;;;;;;;;1.00;1.00;;;;;20.38;60.78;101433.38;105147;1294;21563;-65
2023/01/06 04:29:13;;;;;;;;;;;;;;;20.37;61.03;101431.79;105167;1285;19309;-65
2023/01/06 04:31:40;;;;;;;;;1.00;1.00;;;;;20.37;60.91;101431.10;105099;1285;24134;-65
2023/01/06 04:34:07;;;;;;;;;1.00;1.00;;;;;20.37;60.88;101437.11;105124;1287;20093;-65
2023/01/06 04:36:35;;;;;;;;;1.00;1.00;;;;;20.37;60.78;101438.55;105130;1293;20784;-65
2023/01/06 04:39:02;;;;;;;;;1.00;1.00;;;;;20.38;60.80;101441.15;104978;1285;19886;-64
2023/01/06 04:41:31;;;;;;;;;1.00;1.00;;;;;20.37;60.81;101436.17;105151;1309;22439;-64
2023/01/06 04:43:58;;;;;;;;;1.00;1.00;;;;;20.38;60.86;101430.08;105135;1285;22214;-65
2023/01/06 04:46:25;;;;;;;;;1.00;1.00;;;;;20.37;60.84;101429.23;105138;1285;19540;-65
2023/01/06 04:48:53;;;;;;;;;1.00;1.00;;;;;20.37;60.80;101438.04;105094;1302;21632;-65
2023/01/06 04:51:20;;;;;;;;;1.00;1.00;;;;;20.36;60.64;101437.87;105117;1294;23657;-65
2023/01/06 04:53:48;;;;;;;;;1.00;1.00;;;;;20.36;60.75;101435.94;105429;1282;23736;-64
2023/01/06 04:56:15;;;;;;;;;1.00;1.00;;;;;20.36;60.58;101435.90;105632;1297;21693;-65
2023/01/06 04:58:42;;;;;;;;;1.00;1.00;;;;;20.36;60.53;101427.42;105548;1282;19167;-65
2023/01/06 05:01:10;;;;;;;;;1.00;1.00;;;;;20.36;60.61;101426.84;105548;1281;22740;-66
2023/01/06 05:03:37;;;;;;;;;1.00;1.00;;;;;20.35;60.64;101431.16;105441;1298;24019;-65
2023/01/06 05:06:04;;;;;;;;;1.00;1.00;;;;;20.35;60.83;101433.82;105441;1282;19225;-65
2023/01/06 05:08:32;;;;;;;;;1.00;1.00;;;;;20.36;60.66;101434.16;105450;1300;20660;-64
2023/01/06 05:10:59;;;;;;;;;1.33;1.00;;;;;20.36;60.54;101432.69;105489;1301;20034;-64
2023/01/06 05:13:27;;;;;;;;;1.50;1.50;;;;;20.34;60.70;101433.56;105446;1282;19625;-65
2023/01/06 05:15:54;;;;;;;;;1.00;1.00;;;;;20.35;60.62;101432.17;105449;1274;20686;-65
2023/01/06 05:18:21;;;;;;;;;1.00;1.00;;;;;20.35;60.63;101445.52;105462;1300;21441;-65
2023/01/06 05:20:48;;;;;;;;;1.00;1.00;;;;;20.35;60.38;101445.27;105415;1282;19789;-65
2023/01/06 05:23:16;;;;;;;;;1.00;1.00;;;;;20.34;60.56;101444.45;105515;1287;19256;-66
2023/01/06 05:25:43;;;;;;;;;;;;;;;20.34;60.54;101444.48;105516;1298;20003;-65
2023/01/06 05:28:10;;;;;;;;;1.00;1.00;;;;;20.34;60.37;101446.60;105565;1282;19174;-66
2023/01/06 05:30:38;;;;;;;;;1.00;1.00;;;;;20.34;60.48;101449.21;105403;1298;19679;-64
2023/01/06 05:33:06;;;;;;;;;1.00;1.00;;;;;20.34;60.40;101445.40;105558;1298;21653;-64
2023/01/06 05:35:33;;;;;;;;;1.00;1.00;;;;;20.33;60.35;101448.37;105624;1297;19182;-64
2023/01/06 05:38:01;;;;;;;;;1.00;1.00;;;;;20.33;60.46;101447.29;105495;1289;18991;-65
2023/01/06 05:40:28;;;;;;;;;2.00;1.00;;;;;20.32;60.51;101446.98;105487;1282;20254;-65
2023/01/06 05:42:56;;;;;;;;;2.00;1.00;;;;;20.32;60.37;101447.17;105499;1275;19615;-65
2023/01/06 05:45:23;;;;;;;;;;;;;;;20.32;60.43;101443.71;105520;1282;19332;-66
2023/01/06 05:47:50;;;;;;;;;1.00;1.00;;;;;20.33;60.33;101441.27;105420;1298;20108;-64
2023/01/06 05:50:18;;;;;;;;;1.00;1.00;;;;;20.34;60.47;101445.05;105448;1301;19124;-63
2023/01/06 05:52:45;;;;;;;;;;;;;;;20.33;60.32;101447.27;105432;1298;24176;-64
2023/01/06 05:55:12;;;;;;;;;1.00;1.00;;;;;20.32;60.22;101447.43;105449;1291;21517;-64
2023/01/06 05:57:40;;;;;;;;;1.00;1.00;;;;;20.33;60.18;101450.77;105473;1282;19282;-64
2023/01/06 06:00:08;;;;;;;;;1.50;1.00;;;;;20.32;60.48;101456.07;105429;1275;19409;-65
2023/01/06 06:02:35;;;;;;;;;;;;;;;20.32;60.41;101454.06;105580;1272;22931;-63
2023/01/06 06:05:03;;;;;;;;;1.00;1.00;;;;;20.32;60.55;101453.35;105505;1282;19142;-65
2023/01/06 06:07:30;;;;;;;;;1.00;1.00;;;;;20.33;60.37;101456.23;105532;1300;19246;-65
2023/01/06 06:09:57;;;;;;;;;1.00;1.00;;;;;20.32;60.38;101456.07;105538;1282;20123;-66
2023/01/06 06:12:25;;;;;;;;;1.00;1.00;;;;;20.31;60.41;101455.45;105416;1282;20765;-65
2023/01/06 06:14:52;;;;;;;;;1.00;1.00;;;;;20.32;60.44;101452.35;105555;1289;19284;-65
2023/01/06 06:17:19;;;;;;;;;2.00;1.00;;;;;20.31;60.41;101450.42;105464;1298;23839;-65
2023/01/06 06:19:47;;;;;;;;;1.00;1.00;;;;;20.31;60.64;101448.06;105447;1297;19180;-64
2023/01/06 06:22:14;;;;;;;;;;;;;;;20.31;60.38;101450.38;105443;1297;19240;-66
2023/01/06 06:24:41;;;;;;;;;1.00;1.00;;;;;20.30;60.36;101447.62;105478;1298;22253;-65
2023/01/06 06:27:09;;;;;;;;;1.00;1.00;;;;;20.30;60.49;101451.29;105431;1282;19049;-64
2023/01/06 06:29:37;;;;;;;;;1.00;1.00;;;;;20.30;60.49;101455.21;105464;1300;19237;-64
2023/01/06 06:32:04;;;;;;;;;1.00;1.00;;;;;20.29;60.47;101464.56;105495;1275;23471;-66
2023/01/06 06:34:31;;;;;;;;;2.00;2.00;;;;;20.30;60.61;101473.41;105477;1297;23206;-65
2023/01/06 06:36:59;;;;;;;;;1.00;1.00;;;;;20.28;60.69;101480.67;105441;1291;20772;-65
2023/01/06 06:39:26;;;;;;;;;1.00;1.00;;;;;20.29;60.63;101484.02;105578;1275;21611;-65
2023/01/06 06:41:53;;;;;;;;;1.00;1.00;;;;;20.29;60.79;101489.41;105482;1282;23699;-65
2023/01/06 06:44:21;;;;;;;;;1.00;1.00;;;;;20.30;60.53;101491.52;105494;1298;19189;-65
2023/01/06 06:46:48;;;;;;;;;1.00;1.00;;;;;20.30;60.45;101488.97;105439;1282;21820;-66
2023/01/06 06:49:16;;;;;;;;;1.00;1.00;;;;;20.30;60.61;101491.17;105448;1275;19061;-65
2023/01/06 06:51:46;;;;;;;;;1.00;1.00;;;;;20.30;60.54;101492.27;105445;1281;23629;-65
2023/01/06 06:54:13;;;;;;;;;1.00;1.00;;;;;20.30;60.42;101487.95;105499;1282;22674;-65
2023/01/06 06:56:40;;;;;;;;;1.00;1.00;;;;;20.28;60.65;101487.52;105396;1298;19887;-65
2023/01/06 06:59:08;;;;;;;;;1.00;1.00;;;;;20.29;60.49;101486.38;105566;1291;20858;-65
2023/01/06 07:01:35;;;;;;;;;1.00;1.00;;;;;20.31;60.66;101490.13;105506;1290;23028;-66
2023/01/06 07:04:03;;;;;;;;;1.00;1.00;;;;;20.33;60.69;101487.73;105450;1281;22828;-66
2023/01/06 07:06:31;;;;;;;;;1.00;1.00;;;;;20.37;60.64;101484.81;105430;1289;20678;-65
2023/01/06 07:08:58;;;;;;;;;1.00;1.00;;;;;20.37;60.75;101487.33;105481;1292;20049;-64
2023/01/06 07:11:25;;;;;;;;;1.00;1.00;;;;;20.36;60.90;101490.86;105488;1291;19438;-65
2023/01/06 07:13:53;;;;;;;;;1.00;1.00;;;;;20.35;60.89;101495.35;105440;1281;19488;-65
2023/01/06 07:16:22;;;;;;;;;1.00;1.00;;;;;20.34;60.90;101488.80;105476;1282;22500;-65
2023/01/06 07:18:49;;;;;;;;;1.00;1.00;;;;;20.31;61.03;101489.96;105546;1289;19261;-65
2023/01/06 07:21:16;;;;;;;;;1.00;1.00;;;;;20.32;60.98;101487.34;105415;1290;20755;-65
2023/01/06 07:23:44;;;;;;;;;1.00;1.00;;;;;20.32;60.81;101483.90;105418;1291;22456;-64
2023/01/06 07:26:11;;;;;;;;;1.00;1.00;;;;;20.32;60.96;101481.66;105580;1298;19671;-65
2023/01/06 07:28:38;;;;;;;;;1.00;1.00;;;;;20.31;60.92;101482.16;105493;1282;24930;-66
2023/01/06 07:31:06;;;;;;;;;2.00;2.00;;;;;20.30;60.76;101490.77;105463;1291;20096;-65
2023/01/06 07:33:33;;;;;;;;;1.00;1.00;;;;;20.30;60.73;101486.80;105502;1297;19232;-65
2023/01/06 07:36:00;;;;;;;;;1.00;1.00;;;;;20.30;60.45;101485.39;105426;1281;20755;-66
2023/01/06 07:38:28;;;;;;;;;1.00;1.00;;;;;20.29;60.51;101483.24;105403;1298;20029;-63
2023/01/06 07:40:55;;;;;;;;;1.00;1.00;;;;;20.29;60.54;101482.36;105563;1291;19165;-65
2023/01/06 07:43:23;;;;;;;;;1.00;1.00;;;;;20.30;60.58;101484.30;105520;1301;19216;-65
2023/01/06 07:45:50;;;;;;;;;1.00;1.00;;;;;20.31;60.59;101490.36;105434;1285;21690;-64
2023/01/06 07:48:17;;;;;;;;;1.00;1.00;;;;;20.32;60.61;101488.27;105570;1291;19638;-65
2023/01/06 07:50:45;;;;;;;;;1.00;1.00;;;;;20.32;60.43;101479.89;105379;1292;20774;-65
2023/01/06 07:53:12;;;;;;;;;1.00;1.00;;;;;20.30;60.39;101473.73;105615;1297;21588;-64
2023/01/06 07:55:40;;;;;;;;;1.00;1.00;;;;;20.30;60.56;101471.95;105443;1282;19660;-65
2023/01/06 07:58:07;;;;;;;;;1.00;1.00;;;;;20.30;60.51;101473.24;105452;1297;19242;-66
2023/01/06 08:00:34;;;;;;;;;;;;;;;20.29;60.48;101474.40;105289;1299;20200;-65
2023/01/06 08:03:02;;;;;;;;;;;;;;;20.30;60.34;101482.70;105279;1290;22282;-65
2023/01/06 08:05:29;;;;;;;;;1.00;1.00;;;;;20.29;60.47;101494.52;105447;1282;19292;-65
2023/01/06 08:07:56;;;;;;;;;1.00;1.00;;;;;20.29;60.41;101495.60;105489;1275;28693;-65
2023/01/06 08:10:26;;;;;;;;;1.00;1.00;;;;;20.29;60.41;101494.52;105499;1286;19683;-64
2023/01/06 08:12:54;;;;;;;;;1.00;1.00;;;;;20.30;60.39;101500.44;105604;1275;19302;-64
2023/01/06 08:15:21;;;;;;;;;1.00;1.00;;;;;20.30;60.43;101503.94;105427;1282;20075;-65
2023/01/06 08:17:49;;;;;;;;;1.00;1.00;;;;;20.30;60.54;101510.10;105558;1298;19868;-64
2023/01/06 08:20:16;;;;;;;;;1.00;1.00;;;;;20.29;60.33;101503.77;105535;1284;20611;-64
2023/01/06 08:22:43;;;;;;;;;1.00;1.00;;;;;20.29;60.32;101495.09;105538;1297;23117;-64
2023/01/06 08:25:11;;;;;;;;;1.00;1.00;;;;;20.28;60.41;101488.11;105487;1294;19618;-65
2023/01/06 08:27:38;;;;;;;;;1.00;1.00;;;;;20.28;60.17;101491.16;105440;1297;19394;-66
2023/01/06 08:30:05;;;;;;;;;1.00;1.00;;;;;20.31;60.24;101496.17;105431;1298;21584;-66
2023/01/06 08:32:33;;;;;;;;;1.00;1.00;;;;;20.34;60.09;101495.48;105573;1297;23636;-66
2023/01/06 08:35:00;;;;;;;;;2.00;2.00;;;;;20.34;60.46;101487.10;105431;1282;19246;-65
2023/01/06 08:37:27;;;;;;;;;1.50;1.50;;;;;20.37;60.48;101482.86;105455;1282;20043;-65
2023/01/06 08:39:55;;;;;;;;;1.00;1.00;;;;;20.37;61.10;101480.30;105443;1297;19704;-65
2023/01/06 08:42:22;;;;;;;;;;;;;;;20.38;61.44;101480.36;105464;1289;20803;-66
2023/01/06 08:44:49;;;;;;;;;1.00;1.00;;;;;20.43;61.67;101483.70;105443;1289;22757;-64
2023/01/06 08:47:17;;;;;;;;;2.00;2.00;;;;;20.45;61.86;101490.90;105565;1289;19281;-64
2023/01/06 08:49:44;;;;;;;;;;;;;;;20.46;61.59;101494.26;105419;1282;19757;-65
2023/01/06 08:52:12;;;;;;;;;2.00;2.00;;;;;20.46;61.75;101490.84;105490;1282;20039;-63
2023/01/06 08:54:39;;;;;;;;;2.00;2.00;;;;;20.46;61.66;101481.52;105424;1297;20545;-65
2023/01/06 08:57:07;;;;;;;;;2.00;1.00;;;;;20.46;61.86;101477.05;105467;1282;19445;-65
2023/01/06 08:59:35;;;;;;;;;2.00;2.00;;;;;20.42;61.69;101474.36;105482;1292;21544;-65
2023/01/06 09:02:02;;;;;;;;;2.00;2.00;;;;;20.44;61.70;101477.72;105463;1275;19174;-65
2023/01/06 09:04:29;;;;;;;;;2.00;2.00;;;;;20.45;61.58;101480.36;105466;1291;19536;-66
2023/01/06 09:06:57;;;;;;;;;4.00;2.00;;;;;20.46;61.72;101489.56;105503;1284;20003;-64
2023/01/06 09:09:24;;;;;;;;;3.00;3.00;;;;;20.45;61.69;101488.30;105446;1282;20821;-66
2023/01/06 09:11:51;;;;;;;;;2.00;2.00;;;;;20.45;61.76;101474.92;105375;1275;19266;-65
2023/01/06 09:14:19;;;;;;;;;1.00;1.00;;;;;20.43;61.74;101468.08;105427;1297;21719;-65
2023/01/06 09:16:47;;;;;;;;;2.00;2.00;;;;;20.40;61.40;101465.27;105452;1282;19636;-66
2023/01/06 09:19:15;;;;;;;;;2.00;2.00;;;;;20.37;61.19;101464.90;105468;1301;19272;-65
2023/01/06 09:21:44;;;;;;;;;2.00;2.00;;;;;20.36;61.12;101470.06;105477;1282;23479;-66
2023/01/06 09:24:12;;;;;;;;;2.00;2.00;;;;;20.37;61.13;101471.08;105542;1289;19165;-65
2023/01/06 09:26:39;;;;;;;;;2.00;2.00;;;;;20.36;61.10;101460.84;105464;1275;19240;-66
2023/01/06 09:29:07;;;;;;;;;1.00;1.00;;;;;20.38;60.97;101460.61;105404;1282;22155;-66
2023/01/06 09:31:34;;;;;;;;;1.00;1.00;;;;;20.38;61.26;101458.64;105449;1284;19178;-66
2023/01/06 09:34:02;;;;;;;;;1.00;1.00;;;;;20.38;61.16;101457.67;105449;1282;20655;-66
2023/01/06 09:36:29;;;;;;;;;1.00;1.00;;;;;20.37;61.10;101451.73;105451;1283;20104;-66
2023/01/06 09:38:57;;;;;;;;;2.00;2.00;;;;;20.37;61.06;101442.48;105417;1283;19905;-67
2023/01/06 09:41:24;;;;;;;;;2.00;2.00;;;;;20.38;60.94;101436.58;105510;1278;19420;-66
2023/01/06 09:43:51;;;;;;;;;2.00;2.00;;;;;20.40;61.02;101431.36;105436;1275;28229;-64
2023/01/06 09:46:19;;;;;;;;;1.00;1.00;;;;;20.41;61.15;101432.63;105434;1297;23421;-65
2023/01/06 09:48:46;;;;;;;;;2.00;1.00;;;;;20.41;60.98;101432.48;105499;1289;21470;-66
2023/01/06 09:51:13;;;;;;;;;2.00;2.00;;;;;20.41;61.09;101435.38;105423;1289;23465;-65
2023/01/06 09:53:41;;;;;;;;;2.00;2.00;;;;;20.39;61.00;101435.98;105444;1282;22523;-65
2023/01/06 09:56:08;;;;;;;;;2.00;2.00;;;;;20.38;60.66;101438.21;105323;1282;19261;-66
2023/01/06 09:58:35;;;;;;;;;2.00;2.00;;;;;20.37;60.67;101435.97;105438;1282;20280;-65
2023/01/06 10:01:03;;;;;;;;;1.00;1.00;;;;;20.37;60.67;101434.23;105507;1297;19201;-65
2023/01/06 10:03:31;;;;;;;;;2.00;2.00;;;;;20.34;60.76;101433.53;105476;1282;20780;-66
2023/01/06 10:05:59;;;;;;;;;2.00;1.00;;;;;20.34;60.95;101439.42;105429;1274;22930;-65
2023/01/06 10:08:26;;;;;;;;;1.00;1.00;;;;;20.34;60.73;101435.25;105476;1291;19356;-65
2023/01/06 10:10:53;;;;;;;;;1.00;1.00;;;;;20.34;60.93;101439.98;105480;1292;19252;-65
2023/01/06 10:13:21;;;;;;;;;1.00;1.00;;;;;20.32;60.76;101441.73;105469;1274;22645;-65
2023/01/06 10:15:48;;;;;;;;;1.50;1.50;;;;;20.31;60.98;101424.45;105483;1282;19148;-66
2023/01/06 10:18:16;;;;;;;;;1.00;1.00;;;;;20.31;60.88;101416.15;105474;1289;22266;-65
2023/01/06 10:20:43;;;;;;;;;1.50;1.50;;;;;20.31;60.70;101411.59;105411;1282;22673;-65
2023/01/06 10:23:11;;;;;;;;;;;;;;;20.31;60.66;101410.80;105455;1289;19349;-66
2023/01/06 10:25:38;;;;;;;;;3.00;2.00;;;;;20.31;60.69;101409.44;105469;1281;22910;-65
2023/01/06 10:28:07;;;;;;;;;1.00;1.00;;;;;20.30;60.72;101405.49;105438;1290;22991;-66
2023/01/06 10:30:35;;;;;;;;;2.00;2.00;;;;;20.29;60.75;101398.88;105545;1282;20555;-64
2023/01/06 10:33:02;;;;;;;;;2.00;2.00;;;;;20.29;60.67;101395.75;105368;1291;20764;-66
2023/01/06 10:35:29;;;;;;;;;1.50;1.50;;;;;20.29;60.67;101397.42;105509;1300;20040;-66
2023/01/06 10:37:57;;;;;;;;;;;;;;;20.29;60.82;101389.83;105469;1298;19317;-65
2023/01/06 10:40:25;;;;;;;;;2.00;2.00;;;;;20.28;60.72;101382.23;105480;1289;18992;-64
2023/01/06 10:42:56;;;;;;;;;2.00;2.00;;;;;20.29;60.60;101379.12;105509;1297;23001;-65
2023/01/06 10:45:24;;;;;;;;;2.00;2.00;;;;;20.27;60.58;101374.39;105473;1290;19597;-65
2023/01/06 10:47:51;;;;;;;;;;;;;;;20.28;60.37;101372.09;105485;1291;22491;-65
2023/01/06 10:50:19;;;;;;;;;1.00;1.00;;;;;20.30;60.28;101369.90;105480;1291;24742;-65
2023/01/06 10:52:46;;;;;;;;;1.50;1.50;;;;;20.34;60.84;101366.11;105454;1275;19664;-65
2023/01/06 10:55:16;;;;;;;;;1.00;1.00;;;;;20.36;61.01;101364.36;105458;1282;19542;-64
2023/01/06 10:57:43;;;;;;;;;1.67;1.67;;;;;20.39;61.48;101368.97;105511;1281;20098;-64
2023/01/06 11:00:11;;;;;;;;;2.00;2.00;;;;;20.39;61.71;101362.77;105463;1282;19186;-65
2023/01/06 11:02:38;;;;;;;;;1.00;1.00;;;;;20.39;61.73;101355.33;105564;1297;25419;-65
2023/01/06 11:05:05;;;;;;;;;1.50;1.50;;;;;20.39;61.97;101350.80;105432;1284;21488;-65
2023/01/06 11:07:33;;;;;;;;;2.00;2.00;;;;;20.40;62.00;101348.90;105488;1282;22857;-64
2023/01/06 11:10:00;;;;;;;;;1.00;1.00;;;;;20.40;61.98;101345.47;105501;1297;19273;-65
2023/01/06 11:12:27;;;;;;;;;2.00;2.00;;;;;20.40;62.07;101345.09;105429;1291;21799;-66
2023/01/06 11:14:55;;;;;;;;;2.00;2.00;;;;;20.40;61.87;101340.91;105586;1283;19505;-66
2023/01/06 11:17:22;;;;;;;;;1.00;1.00;;;;;20.40;61.72;101343.66;105462;1294;19361;-66
2023/01/06 11:19:49;;;;;;;;;2.00;1.00;;;;;20.38;61.41;101336.41;105487;1283;20735;-66
2023/01/06 11:22:17;;;;;;;;;2.00;2.00;;;;;20.36;61.35;101331.24;105508;1282;19174;-66
2023/01/06 11:24:44;;;;;;;;;2.00;2.00;;;;;20.34;61.42;101323.74;105548;1289;19515;-66
2023/01/06 11:27:12;;;;;;;;;2.00;2.00;;;;;20.34;61.44;101319.61;105519;1283;20026;-67